Time;durP1;ratioP1;P1;durP2;ratioP2;P2;SDS_P1;SDS_P2;PMS_P1;PMS_P2;Temp;Humidity;BMP_temperature;BMP_pressure;BME280_temperature;BME280_humidity;BME280_pressure;Samples;Min_cycle;Max_cycle;Signal;HPM_P1;HPM_P2
2023/02/15 00:00:10;;;;;;;47.60;33.00;;;;;;;3.34;90.86;102242.97;107583;1253;87587;-60
2023/02/15 00:03:10;;;;;;;47.40;32.50;;;;;;;3.33;90.78;102248.14;107575;1252;94728;-62
2023/02/15 00:05:50;;;;;;;52.20;34.10;;;;;;;3.31;90.75;102244.74;107588;1252;80471;-56
2023/02/15 00:08:27;;;;;;;48.90;33.60;;;;;;;3.28;90.58;102246.89;107559;1252;82838;-60
2023/02/15 00:11:11;;;;;;;;;;;;;;;3.28;90.66;102244.21;107592;1253;96944;-61
2023/02/15 00:13:50;;;;;;;48.80;33.90;;;;;;;3.30;90.74;102244.29;107613;1252;88810;-61
2023/02/15 00:16:44;;;;;;;49.80;32.80;;;;;;;3.29;90.69;102239.36;107565;1252;95005;-60
2023/02/15 00:19:22;;;;;;;46.10;31.80;;;;;;;3.30;90.79;102239.48;107570;1252;80933;-61
2023/02/15 00:22:02;;;;;;;45.70;31.10;;;;;;;3.32;90.74;102233.80;107582;1252;82506;-60
2023/02/15 00:24:39;;;;;;;43.20;30.50;;;;;;;3.35;90.74;102235.06;107568;1252;98996;-60
2023/02/15 00:27:23;;;;;;;45.50;31.70;;;;;;;3.36;90.82;102235.13;107572;1252;88528;-60
2023/02/15 00:30:06;;;;;;;42.90;29.60;;;;;;;3.39;90.84;102232.67;107609;1252;92900;-60
2023/02/15 00:32:49;;;;;;;47.30;31.90;;;;;;;3.40;90.93;102227.79;107563;1253;77522;-57
2023/02/15 00:35:33;;;;;;;44.60;31.50;;;;;;;3.38;90.89;102221.84;107599;1252;83066;-60
2023/02/15 00:38:08;;;;;;;43.40;30.50;;;;;;;3.35;90.89;102218.70;107573;1252;98618;-60
2023/02/15 00:41:10;;;;;;;48.70;31.80;;;;;;;3.36;90.94;102218.94;107585;1252;86709;-57
2023/02/15 00:43:54;;;;;;;46.40;30.50;;;;;;;3.34;90.87;102215.36;107509;1252;95869;-58
2023/02/15 00:46:41;;;;;;;44.40;31.20;;;;;;;3.35;90.84;102216.02;107589;1252;81483;-58
2023/02/15 00:49:23;;;;;;;45.80;31.00;;;;;;;3.38;90.85;102211.67;107556;1252;83053;-60
2023/02/15 00:52:06;;;;;;;44.00;30.60;;;;;;;3.41;90.94;102211.36;107537;1253;97906;-59
2023/02/15 00:54:46;;;;;;;45.10;30.70;;;;;;;3.40;90.96;102210.00;107543;1253;89718;-61
2023/02/15 00:57:28;;;;;;;50.80;32.30;;;;;;;3.38;90.86;102207.08;107528;1252;94546;-61
2023/02/15 01:00:09;;;;;;;44.60;29.40;;;;;;;3.37;90.85;102209.11;107526;1252;81317;-56
2023/02/15 01:02:48;;;;;;;42.80;29.60;;;;;;;3.38;90.66;102209.23;107589;1252;82407;-57
2023/02/15 01:05:24;;;;;;;43.80;29.70;;;;;;;3.41;90.85;102208.85;107566;1252;97693;-61
2023/02/15 01:08:06;;;;;;;46.90;31.30;;;;;;;3.43;91.02;102206.54;107573;1252;89304;-60
2023/02/15 01:10:46;;;;;;;42.60;30.40;;;;;;;3.46;90.90;102207.09;107552;1252;93656;-61
2023/02/15 01:13:29;;;;;;;45.20;31.70;;;;;;;3.44;90.74;102206.54;107597;1252;81929;-50
2023/02/15 01:16:08;;;;;;;43.90;31.20;;;;;;;3.43;90.74;102197.81;107549;1252;82897;-57
2023/02/15 01:18:45;;;;;;;45.40;30.70;;;;;;;3.43;90.61;102190.14;107546;1252;99065;-60
2023/02/15 01:21:30;;;;;;;48.10;31.30;;;;;;;3.46;90.70;102190.55;107554;1253;89273;-61
2023/02/15 01:24:14;;;;;;;48.70;33.20;;;;;;;3.48;90.72;102194.98;107531;1253;95404;-60
2023/02/15 01:26:59;;;;;;;45.50;31.20;;;;;;;3.48;90.88;102191.30;107557;1252;80123;-60
2023/02/15 01:29:44;;;;;;;45.90;30.80;;;;;;;3.46;90.87;102189.77;107584;1253;83197;-60
2023/02/15 01:32:29;;;;;;;45.50;29.80;;;;;;;3.44;90.84;102187.78;107584;1253;97794;-61
2023/02/15 01:35:07;;;;;;;41.30;30.00;;;;;;;3.47;90.83;102182.60;107419;1252;89185;-60
2023/02/15 01:37:42;;;;;;;42.80;30.10;;;;;;;3.49;91.09;102181.39;107601;1256;95228;-56
2023/02/15 01:40:20;;;;;;;42.30;29.10;;;;;;;3.52;90.83;102181.58;107548;1253;79431;-49
2023/02/15 01:43:16;;;;;;;45.80;30.50;;;;;;;3.52;90.94;102183.20;107557;1253;81001;-59
2023/02/15 01:45:58;;;;;;;48.30;32.50;;;;;;;3.53;90.92;102184.36;107600;1252;97290;-58
2023/02/15 01:48:44;;;;;;;39.50;29.50;;;;;;;3.51;90.82;102181.79;107544;1253;89361;-57
2023/02/15 01:51:28;;;;;;;40.50;28.60;;;;;;;3.49;90.81;102181.58;107564;1256;95170;-57
2023/02/15 01:54:10;;;;;;;42.30;28.30;;;;;;;3.50;90.65;102183.13;107550;1256;82136;-61
2023/02/15 01:56:46;;;;;;;45.30;29.50;;;;;;;3.52;90.82;102186.21;107588;1253;82304;-62
2023/02/15 01:59:32;;;;;;;48.00;30.40;;;;;;;3.55;90.87;102178.73;107578;1252;98088;-60
2023/02/15 02:02:17;;;;;;;46.80;30.10;;;;;;;3.55;90.89;102172.27;107558;1256;89729;-59
2023/02/15 02:05:07;;;;;;;43.80;30.90;;;;;;;3.55;91.02;102171.17;107584;1253;94379;-58
2023/02/15 02:07:49;;;;;;;44.20;30.80;;;;;;;3.56;90.91;102170.63;107581;1252;78288;-58
2023/02/15 02:10:32;;;;;;;49.40;31.70;;;;;;;3.58;90.86;102166.73;107598;1252;82898;-56
2023/02/15 02:13:23;;;;;;;49.40;32.70;;;;;;;3.59;90.82;102166.51;107570;1252;99159;-59
2023/02/15 02:16:17;;;;;;;50.00;30.60;;;;;;;3.51;90.62;102161.69;107591;1256;89801;-62
2023/02/15 02:19:29;;;;;;;46.10;31.70;;;;;;;3.52;90.73;102160.52;107528;1252;95462;-58
2023/02/15 02:23:05;;;;;;;47.60;30.90;;;;;;;3.52;90.92;102155.75;107561;1252;80810;-59
2023/02/15 02:26:31;;;;;;;48.30;31.00;;;;;;;3.54;91.09;102154.17;107491;1256;82398;-59
2023/02/15 02:29:47;;;;;;;43.50;29.10;;;;;;;3.56;90.97;102155.48;107533;1252;98506;-59
2023/02/15 02:33:17;;;;;;;41.60;28.90;;;;;;;3.55;90.85;102148.03;107567;1252;88687;-58
2023/02/15 02:36:03;;;;;;;43.30;29.90;;;;;;;3.58;90.91;102148.91;107554;1252;93924;-60
2023/02/15 02:38:54;;;;;;;48.80;31.00;;;;;;;3.58;90.84;102143.98;107564;1256;77797;-62
2023/02/15 02:41:38;;;;;;;42.00;30.50;;;;;;;3.59;90.92;102136.76;107534;1252;82296;-61
2023/02/15 02:44:22;;;;;;;46.30;30.90;;;;;;;3.55;91.10;102140.94;107534;1253;97491;-57
2023/02/15 02:47:09;;;;;;;48.50;31.20;;;;;;;3.56;91.02;102140.52;107553;1253;88560;-59
2023/02/15 02:49:47;;;;;;;53.20;33.00;;;;;;;3.55;90.96;102139.11;107565;1253;95157;-61
2023/02/15 02:52:44;;;;;;;53.90;34.60;;;;;;;3.53;91.19;102142.31;107530;1253;80781;-62
2023/02/15 02:55:31;;;;;;;53.20;33.40;;;;;;;3.45;90.90;102138.23;107584;1252;83182;-59
2023/02/15 02:58:21;;;;;;;52.80;33.60;;;;;;;3.45;90.69;102138.61;107401;1253;98809;-62
2023/02/15 03:01:05;;;;;;;51.60;33.30;;;;;;;3.45;91.00;102140.22;107565;1253;88645;-61
2023/02/15 03:03:45;;;;;;;48.70;32.70;;;;;;;3.51;90.93;102143.16;107542;1252;95610;-61
2023/02/15 03:06:27;;;;;;;51.10;32.60;;;;;;;3.51;90.83;102135.48;107560;1253;80016;-61
2023/02/15 03:09:14;;;;;;;49.50;32.70;;;;;;;3.53;91.11;102139.63;107586;1253;82268;-62
2023/02/15 03:12:03;;;;;;;51.50;34.10;;;;;;;3.54;91.03;102130.98;107511;1253;98699;-61
2023/02/15 03:14:41;;;;;;;48.80;31.50;;;;;;;3.52;90.93;102138.13;107560;1252;89354;-57
2023/02/15 03:17:25;;;;;;;46.40;30.80;;;;;;;3.54;91.13;102135.48;107547;1256;93997;-57
2023/02/15 03:20:11;;;;;;;48.70;30.30;;;;;;;3.56;91.05;102131.09;107521;1252;80115;-62
2023/02/15 03:22:55;;;;;;;47.80;31.60;;;;;;;3.55;91.05;102130.80;107531;1253;82870;-61
2023/02/15 03:25:42;;;;;;;50.60;32.60;;;;;;;3.57;91.16;102129.23;107589;1253;97804;-57
2023/02/15 03:28:28;;;;;;;46.40;30.20;;;;;;;3.57;90.97;102131.55;107531;1256;89257;-61
2023/02/15 03:31:11;;;;;;;43.80;29.40;;;;;;;3.62;90.95;102136.39;107544;1257;95287;-61
2023/02/15 03:33:51;;;;;;;45.10;29.50;;;;;;;3.62;91.04;102137.80;107512;1253;80494;-61
2023/02/15 03:36:32;;;;;;;47.70;31.60;;;;;;;3.61;91.20;102139.83;107565;1252;80785;-62
2023/02/15 03:39:21;;;;;;;47.30;32.20;;;;;;;3.58;91.24;102133.41;107520;1253;99019;-58
2023/02/15 03:42:11;;;;;;;46.80;30.40;;;;;;;3.56;91.00;102140.48;107347;1255;86771;-58
2023/02/15 03:44:57;;;;;;;51.00;31.50;;;;;;;3.53;90.81;102138.94;107335;1255;94372;-55
2023/02/15 03:47:46;;;;;;;47.60;30.50;;;;;;;3.48;90.92;102139.10;107338;1256;80991;-61
2023/02/15 03:53:27;;;;;;;48.60;31.00;;;;;;;3.54;90.82;102128.16;107130;1254;99111;-58
2023/02/15 03:56:10;;;;;;;45.00;30.30;;;;;;;3.52;91.04;102128.83;107342;1256;86826;-59
2023/02/15 04:02:04;;;;;;;49.60;30.70;;;;;;;3.60;91.02;102124.80;107358;1253;78736;-52
2023/02/15 04:04:48;;;;;;;67.80;39.60;;;;;;;3.61;90.99;102123.62;107422;1254;81309;-58
2023/02/15 04:07:24;;;;;;;56.70;37.80;;;;;;;3.61;90.90;102121.50;107372;1255;98677;-57
2023/02/15 04:13:04;;;;;;;56.40;35.50;;;;;;;3.53;91.09;102119.85;107344;1257;94669;-55
2023/02/15 04:27:29;;;;;;;51.00;31.80;;;;;;;3.57;91.13;102115.51;107298;1254;94625;-59
2023/02/15 04:30:10;;;;;;;51.90;34.10;;;;;;;3.58;90.97;102115.46;107321;1256;78652;-58
2023/02/15 04:32:47;;;;;;;53.20;33.80;;;;;;;3.54;91.03;102114.08;107343;1254;82020;-59
2023/02/15 04:35:31;;;;;;;53.30;33.40;;;;;;;3.56;91.00;102109.88;107316;1253;98960;-61
2023/02/15 04:38:13;;;;;;;52.10;33.70;;;;;;;3.54;90.95;102111.45;107322;1257;88876;-58
2023/02/15 04:40:52;;;;;;;;;;;;;;;3.55;91.13;102113.52;107440;1252;94940;-61
2023/02/15 04:43:30;;;;;;;56.90;32.40;;;;;;;3.58;91.10;102112.25;107515;1252;81928;-58
2023/02/15 04:46:10;;;;;;;52.10;31.70;;;;;;;3.60;90.97;102111.40;107561;1252;83140;-62
2023/02/15 04:48:44;;;;;;;48.20;30.60;;;;;;;3.61;91.01;102113.98;107537;1253;98156;-61
2023/02/15 04:51:19;;;;;;;45.60;28.40;;;;;;;3.63;91.02;102111.41;107128;1252;560612;-61
2023/02/15 04:54:01;;;;;;;41.30;27.40;;;;;;;3.60;90.88;102110.82;107533;1253;95101;-57
2023/02/15 04:56:42;;;;;;;;;;;;;;;3.62;90.97;102106.48;107555;1253;80948;-60
2023/02/15 04:59:23;;;;;;;40.10;26.20;;;;;;;3.64;90.92;102109.17;107538;1252;82622;-59
2023/02/15 05:02:11;;;;;;;38.90;25.40;;;;;;;3.65;91.24;102113.74;107532;1253;99001;-59
2023/02/15 05:04:58;;;;;;;44.70;26.40;;;;;;;3.66;91.08;102111.36;107568;1253;88655;-59
2023/02/15 05:07:41;;;;;;;43.00;25.30;;;;;;;3.67;91.00;102114.84;107484;1256;95256;-58
2023/02/15 05:10:27;;;;;;;36.40;23.80;;;;;;;3.64;90.95;102114.38;107522;1253;81969;-59
2023/02/15 05:13:15;;;;;;;37.80;23.40;;;;;;;3.63;90.88;102117.08;107546;1253;83682;-58
2023/02/15 05:15:59;;;;;;;36.10;23.80;;;;;;;3.64;91.06;102123.21;107542;1253;97933;-60
2023/02/15 05:18:40;;;;;;;40.20;24.70;;;;;;;3.69;90.92;102125.06;107553;1252;89705;-56
2023/02/15 05:21:26;;;;;;;36.60;22.10;;;;;;;3.68;90.90;102129.36;107517;1257;95416;-58
2023/02/15 05:28:19;;;;;;;34.00;22.60;;;;;;;3.68;90.80;102133.13;107530;1253;78931;-60
2023/02/15 05:30:11;;;;;;;35.30;24.10;;;;;;;3.66;90.78;102136.98;107580;1253;99232;-57
2023/02/15 05:32:52;;;;;;;37.00;24.10;;;;;;;3.61;90.89;102133.77;107380;1253;86886;-59
2023/02/15 05:35:36;;;;;;;38.50;24.40;;;;;;;3.57;90.73;102134.25;107517;1257;95708;-59
2023/02/15 05:38:15;;;;;;;36.30;24.20;;;;;;;3.55;90.96;102137.70;107539;1253;79671;-60
2023/02/15 05:40:55;;;;;;;35.20;22.70;;;;;;;3.51;90.93;102139.23;107540;1257;81779;-59
2023/02/15 05:43:36;;;;;;;32.30;20.80;;;;;;;3.53;90.69;102139.09;107586;1253;98638;-58
2023/02/15 05:46:20;;;;;;;33.70;21.20;;;;;;;3.54;90.92;102132.64;107555;1253;89609;-59
2023/02/15 05:48:59;;;;;;;32.50;20.40;;;;;;;3.61;90.95;102131.11;107609;1253;94515;-56
2023/02/15 05:51:42;;;;;;;31.50;21.40;;;;;;;3.68;90.57;102133.14;107596;1253;79898;-58
2023/02/15 05:54:24;;;;;;;29.40;20.60;;;;;;;3.67;90.57;102133.39;107586;1253;83008;-61
2023/02/15 05:57:05;;;;;;;31.60;20.70;;;;;;;3.70;90.75;102128.73;107529;1253;97105;-62
2023/02/15 05:59:45;;;;;;;32.00;20.70;;;;;;;3.70;90.68;102129.63;107546;1253;87336;-59
2023/02/15 06:02:27;;;;;;;32.60;21.00;;;;;;;3.69;90.65;102133.92;107541;1253;95291;-57
2023/02/15 06:05:08;;;;;;;31.00;20.30;;;;;;;3.69;90.57;102136.60;107544;1253;81060;-56
2023/02/15 06:07:46;;;;;;;30.70;20.00;;;;;;;3.69;90.49;102132.69;107614;1253;82524;-58
2023/02/15 06:10:30;;;;;;;30.10;19.80;;;;;;;3.62;90.61;102132.79;107558;1253;98862;-57
2023/02/15 06:13:10;;;;;;;32.10;20.60;;;;;;;3.61;90.63;102132.55;107562;1253;88221;-58
2023/02/15 06:15:49;;;;;;;35.30;21.70;;;;;;;3.60;90.81;102133.64;107570;1253;95546;-58
2023/02/15 06:18:26;;;;;;;35.00;21.10;;;;;;;3.63;90.76;102133.65;107565;1253;80499;-59
2023/02/15 06:21:08;;;;;;;31.90;21.00;;;;;;;3.67;90.62;102135.16;107570;1253;83172;-59
2023/02/15 06:23:48;;;;;;;33.10;21.00;;;;;;;3.71;90.68;102138.80;107561;1253;99202;-57
2023/02/15 06:26:34;;;;;;;29.50;20.90;;;;;;;3.71;90.61;102134.67;107581;1253;87589;-58
2023/02/15 06:29:16;;;;;;;32.50;20.90;;;;;;;3.68;90.63;102135.95;107558;1253;95401;-62
2023/02/15 06:31:58;;;;;;;33.60;21.10;;;;;;;3.70;90.71;102139.00;107532;1253;79621;-61
2023/02/15 06:34:34;;;;;;;;;;;;;;;3.68;90.41;102143.10;107591;1256;82379;-58
2023/02/15 06:37:13;;;;;;;30.60;20.10;;;;;;;3.65;90.54;102139.06;107517;1253;98899;-59
2023/02/15 06:39:48;;;;;;;30.40;19.60;;;;;;;3.62;90.59;102140.46;107568;1253;89155;-61
2023/02/15 06:42:30;;;;;;;29.30;18.40;;;;;;;3.56;90.61;102142.67;107543;1257;95542;-62
2023/02/15 06:45:05;;;;;;;31.20;19.60;;;;;;;3.54;90.70;102140.96;107579;1252;81028;-61
2023/02/15 06:47:44;;;;;;;29.90;20.20;;;;;;;3.58;90.71;102142.50;107528;1253;82090;-61
2023/02/15 06:50:25;;;;;;;31.30;21.50;;;;;;;3.62;90.54;102144.58;107533;1253;99079;-61
2023/02/15 06:53:08;;;;;;;33.10;21.70;;;;;;;3.64;90.69;102146.03;107576;1253;88612;-61
2023/02/15 06:55:53;;;;;;;33.80;21.10;;;;;;;3.65;90.65;102140.48;107548;1256;94783;-61
2023/02/15 06:58:32;;;;;;;32.20;19.60;;;;;;;3.71;90.59;102137.39;107532;1253;78515;-58
2023/02/15 07:01:10;;;;;;;35.00;21.30;;;;;;;3.72;90.53;102133.92;107570;1253;82285;-58
2023/02/15 07:03:53;;;;;;;32.20;22.20;;;;;;;3.72;90.77;102134.27;107570;1253;98355;-60
2023/02/15 07:06:34;;;;;;;31.40;21.70;;;;;;;3.73;90.66;102138.65;107559;1252;87994;-58
2023/02/15 07:09:16;;;;;;;33.10;21.60;;;;;;;3.75;90.54;102137.82;107548;1253;95540;-60
2023/02/15 07:15:06;;;;;;;30.30;20.70;;;;;;;3.72;90.44;102133.41;107570;1253;81966;-60
2023/02/15 07:17:50;;;;;;;30.60;20.80;;;;;;;3.73;90.36;102132.59;107541;1252;98082;-61
2023/02/15 07:20:36;;;;;;;32.50;21.90;;;;;;;3.72;90.36;102134.80;107566;1253;86730;-61
2023/02/15 07:23:12;;;;;;;31.40;21.60;;;;;;;3.76;90.37;102132.59;107575;1253;93933;-61
2023/02/15 07:25:57;;;;;;;31.70;20.90;;;;;;;3.79;90.42;102130.38;107518;1253;81548;-57
2023/02/15 07:28:35;;;;;;;32.80;21.20;;;;;;;3.80;90.28;102125.52;107540;1253;79948;-58
2023/02/15 07:31:20;;;;;;;34.60;22.00;;;;;;;3.80;90.19;102122.52;107561;1253;96480;-59
2023/02/15 07:34:05;;;;;;;35.50;22.60;;;;;;;3.86;90.17;102123.53;107568;1253;87879;-52
2023/02/15 07:36:45;;;;;;;35.70;22.40;;;;;;;3.85;89.99;102125.20;107538;1253;95450;-59
2023/02/15 07:39:25;;;;;;;34.30;22.10;;;;;;;3.85;89.99;102119.33;107533;1253;80071;-57
2023/02/15 07:42:08;;;;;;;32.30;21.80;;;;;;;3.84;89.89;102117.92;107559;1252;82515;-58
2023/02/15 07:44:52;;;;;;;34.90;22.00;;;;;;;3.74;90.18;102117.79;107507;1253;97620;-59
2023/02/15 07:47:37;;;;;;;30.50;20.20;;;;;;;3.78;89.85;102121.55;107559;1257;89242;-58
2023/02/15 07:50:12;;;;;;;31.30;19.90;;;;;;;3.85;89.76;102129.27;107329;1253;93798;-60
2023/02/15 07:52:52;;;;;;;34.20;20.10;;;;;;;3.87;89.70;102123.13;107354;1253;80006;-61
2023/02/15 07:55:36;;;;;;;29.20;20.60;;;;;;;3.83;89.96;102122.31;107581;1253;82562;-61
2023/02/15 07:58:19;;;;;;;31.00;21.20;;;;;;;3.77;90.05;102121.97;107535;1253;98675;-59
2023/02/15 08:01:04;;;;;;;34.80;22.70;;;;;;;3.78;90.27;102122.14;107568;1256;87527;-60
2023/02/15 08:03:47;;;;;;;34.50;22.40;;;;;;;3.74;90.00;102113.83;107367;1253;94876;-61
2023/02/15 08:06:26;;;;;;;35.10;23.30;;;;;;;3.76;89.97;102112.82;107560;1253;80195;-61
2023/02/15 08:09:11;;;;;;;34.80;20.50;;;;;;;3.82;90.04;102109.92;107600;1256;81906;-53
2023/02/15 08:11:50;;;;;;;34.30;22.60;;;;;;;3.76;90.16;102104.96;107562;1255;98253;-52
2023/02/15 08:14:33;;;;;;;32.60;22.40;;;;;;;3.74;90.34;102104.23;107582;1256;88310;-61
2023/02/15 08:17:20;;;;;;;35.80;22.80;;;;;;;3.77;90.26;102101.48;107517;1252;95714;-62
2023/02/15 08:20:00;;;;;;;34.40;21.70;;;;;;;3.86;90.16;102106.59;107529;1253;81482;-61
2023/02/15 08:22:48;;;;;;;34.50;22.50;;;;;;;3.87;90.11;102100.42;107539;1253;82289;-57
2023/02/15 08:25:32;;;;;;;37.50;23.70;;;;;;;3.84;89.94;102100.27;107531;1253;96886;-58
2023/02/15 08:28:16;;;;;;;34.80;22.70;;;;;;;3.85;89.95;102101.86;107557;1253;89633;-59
2023/02/15 08:30:55;;;;;;;36.80;23.10;;;;;;;3.86;89.84;102100.17;107528;1252;94136;-61
2023/02/15 08:33:40;;;;;;;36.80;21.60;;;;;;;3.86;89.82;102102.11;107562;1253;81653;-57
2023/02/15 08:36:20;;;;;;;30.90;19.40;;;;;;;3.89;89.94;102104.23;107534;1256;82555;-58
2023/02/15 08:39:06;;;;;;;29.30;17.90;;;;;;;3.86;89.96;102103.20;107538;1252;99077;-55
2023/02/15 08:41:48;;;;;;;29.70;18.90;;;;;;;3.82;89.76;102100.98;107553;1253;89179;-59
2023/02/15 08:44:25;;;;;;;31.00;18.30;;;;;;;3.86;89.74;102100.19;107546;1256;95028;-58
2023/02/15 08:47:06;;;;;;;30.30;17.90;;;;;;;3.89;89.79;102098.92;107535;1253;81122;-57
2023/02/15 08:49:44;;;;;;;28.80;17.50;;;;;;;3.94;89.73;102095.70;107563;1254;82540;-57
2023/02/15 08:52:29;;;;;;;30.20;18.60;;;;;;;3.92;89.87;102088.55;107563;1252;97557;-55
2023/02/15 08:55:10;;;;;;;28.10;17.70;;;;;;;3.94;89.62;102086.80;107532;1257;88247;-61
2023/02/15 08:57:55;;;;;;;26.40;17.10;;;;;;;3.92;89.41;102081.91;107567;1253;92166;-61
2023/02/15 09:00:31;;;;;;;;;;;;;;;3.89;89.43;102081.25;107598;1256;81487;-59
2023/02/15 09:03:13;;;;;;;27.40;16.60;;;;;;;3.78;89.67;102082.17;107549;1255;82765;-59
2023/02/15 09:06:00;;;;;;;31.20;18.70;;;;;;;3.82;89.63;102086.16;107595;1257;98488;-57
2023/02/15 09:08:43;;;;;;;28.80;17.50;;;;;;;3.85;89.47;102084.88;107544;1252;88747;-57
2023/02/15 09:11:23;;;;;;;30.00;17.60;;;;;;;3.74;89.31;102084.06;107549;1253;93658;-58
2023/02/15 09:14:03;;;;;;;30.00;18.50;;;;;;;3.76;89.34;102082.49;107604;1257;79168;-61
2023/02/15 09:16:48;;;;;;;29.90;19.20;;;;;;;3.78;89.22;102080.02;107562;1252;82799;-55
2023/02/15 09:19:35;;;;;;;33.00;20.20;;;;;;;3.77;88.92;102072.31;107582;1254;98893;-60
2023/02/15 09:22:14;;;;;;;29.50;18.90;;;;;;;3.74;88.86;102069.78;107571;1257;89051;-61
2023/02/15 09:24:53;;;;;;;31.90;19.20;;;;;;;3.73;88.97;102065.77;107549;1252;95781;-60
2023/02/15 09:27:40;;;;;;;32.00;19.90;;;;;;;3.70;89.26;102069.04;107533;1256;82076;-60
2023/02/15 09:30:18;;;;;;;32.30;19.40;;;;;;;3.78;88.91;102070.61;107581;1257;81562;-61
2023/02/15 09:32:55;;;;;;;32.30;19.30;;;;;;;3.79;88.86;102065.55;107575;1257;98050;-60
2023/02/15 09:35:39;;;;;;;29.10;17.40;;;;;;;3.82;88.87;102069.58;107412;1259;88659;-58
2023/02/15 09:38:23;;;;;;;29.00;18.40;;;;;;;3.77;88.57;102066.23;107613;1254;94819;-60
2023/02/15 09:41:16;;;;;;;30.40;18.50;;;;;;;3.75;88.79;102069.06;107554;1254;79778;-54
2023/02/15 09:44:05;;;;;;;34.00;19.80;;;;;;;3.75;88.95;102065.30;107540;1257;83909;-59
2023/02/15 09:47:03;;;;;;;32.40;19.00;;;;;;;3.74;88.86;102062.86;107576;1254;98773;-57
2023/02/15 09:49:54;;;;;;;32.10;18.50;;;;;;;3.79;88.69;102062.38;107574;1256;87525;-56
2023/02/15 09:52:53;;;;;;;31.20;19.40;;;;;;;3.83;88.93;102065.13;107544;1257;95836;-56
2023/02/15 09:55:49;;;;;;;31.90;20.00;;;;;;;3.85;89.06;102063.03;107604;1252;80162;-57
2023/02/15 09:58:36;;;;;;;35.70;21.90;;;;;;;3.79;88.96;102057.87;107609;1257;83486;-57
2023/02/15 10:01:24;;;;;;;34.80;20.90;;;;;;;3.86;88.87;102059.00;107574;1257;98398;-58
2023/02/15 10:04:21;;;;;;;37.10;21.40;;;;;;;3.88;89.21;102056.21;107580;1254;87800;-61
2023/02/15 10:07:18;;;;;;;37.80;22.10;;;;;;;3.91;89.04;102057.06;107549;1257;94297;-60
2023/02/15 10:10:06;;;;;;;40.40;24.40;;;;;;;3.88;88.96;102054.59;107606;1254;81833;-61
2023/02/15 10:13:11;;;;;;;42.00;25.90;;;;;;;3.82;88.86;102053.89;107584;1254;80929;-61
2023/02/15 10:16:03;;;;;;;40.60;24.30;;;;;;;3.86;88.81;102049.17;107608;1253;99144;-62
2023/02/15 10:19:13;;;;;;;38.00;24.10;;;;;;;3.93;88.91;102044.97;107613;1254;89212;-57
2023/02/15 10:22:06;;;;;;;42.00;24.90;;;;;;;4.04;88.59;102045.24;107604;1254;94684;-63
2023/02/15 10:25:11;;;;;;;37.40;21.30;;;;;;;4.04;88.34;102040.06;107578;1255;79963;-61
2023/02/15 10:27:51;;;;;;;35.10;20.30;;;;;;;3.99;88.40;102040.11;107588;1257;83023;-61
2023/02/15 10:30:37;;;;;;;32.40;18.60;;;;;;;3.99;88.29;102036.12;107581;1254;99812;-61
2023/02/15 10:33:30;;;;;;;31.90;19.00;;;;;;;3.98;88.19;102034.44;107621;1254;88156;-59
2023/02/15 10:36:13;;;;;;;;;;;;;;;3.98;88.24;102032.15;107544;1255;94951;-61
2023/02/15 10:39:14;;;;;;;30.10;18.10;;;;;;;3.97;88.07;102028.09;107598;1253;82112;-58
2023/02/15 10:42:01;;;;;;;36.60;19.40;;;;;;;3.94;88.11;102025.42;107610;1254;81556;-58
2023/02/15 10:45:03;;;;;;;36.70;18.70;;;;;;;3.97;88.28;102023.65;107581;1257;99389;-59
2023/02/15 10:48:08;;;;;;;30.30;18.80;;;;;;;3.96;88.43;102022.85;107626;1253;89543;-59
2023/02/15 10:50:53;;;;;;;34.30;18.60;;;;;;;3.95;88.64;102018.64;107574;1257;93036;-61
2023/02/15 10:54:06;;;;;;;33.70;20.30;;;;;;;4.03;88.75;102021.09;107613;1255;80061;-58
2023/02/15 10:56:58;;;;;;;30.80;18.30;;;;;;;4.13;88.43;102012.16;107595;1254;82481;-50
2023/02/15 11:00:04;;;;;;;34.30;20.30;;;;;;;4.13;88.34;102007.70;107598;1254;99678;-60
2023/02/15 11:03:01;;;;;;;33.10;19.80;;;;;;;4.11;88.30;102005.73;107566;1255;87703;-61
2023/02/15 11:05:50;;;;;;;35.00;20.20;;;;;;;4.09;88.31;102001.02;107487;1253;95057;-61
2023/02/15 11:08:37;;;;;;;34.10;20.20;;;;;;;4.12;88.08;102001.86;107596;1253;79676;-60
2023/02/15 11:11:17;;;;;;;30.00;18.60;;;;;;;4.10;87.91;101999.69;107550;1254;82788;-60
2023/02/15 11:14:03;;;;;;;32.70;18.60;;;;;;;4.04;87.95;101994.98;107648;1254;97947;-61
2023/02/15 11:16:55;;;;;;;31.10;18.90;;;;;;;4.02;88.00;101992.96;107567;1256;89247;-62
2023/02/15 11:19:41;;;;;;;28.30;16.80;;;;;;;4.08;87.73;101998.79;107574;1254;94726;-57
2023/02/15 11:22:20;;;;;;;26.30;15.60;;;;;;;4.07;87.50;101998.66;107560;1255;79873;-57
2023/02/15 11:25:02;;;;;;;25.10;16.20;;;;;;;4.02;87.57;101996.36;107611;1253;83022;-62
2023/02/15 11:27:48;;;;;;;26.20;15.80;;;;;;;4.04;87.79;101997.30;107581;1257;99057;-53
2023/02/15 11:30:41;;;;;;;19.30;13.40;;;;;;;3.97;87.91;101997.44;107608;1255;88698;-61
2023/02/15 11:33:24;;;;;;;;;;;;;;;3.84;87.89;101995.15;107580;1254;95389;-55
2023/02/15 11:36:06;;;;;;;27.40;16.00;;;;;;;3.83;87.90;101994.52;107579;1256;80890;-60
2023/02/15 11:38:58;;;;;;;26.70;15.70;;;;;;;3.88;87.80;101992.40;107599;1252;83524;-61
2023/02/15 11:41:39;;;;;;;27.30;15.10;;;;;;;3.85;88.03;101988.65;107579;1253;100135;-62
2023/02/15 11:44:23;;;;;;;26.00;16.40;;;;;;;3.92;87.69;101990.29;107595;1254;89345;-57
2023/02/15 11:47:01;;;;;;;24.80;16.90;;;;;;;3.91;87.63;101986.98;107605;1254;95110;-49
2023/02/15 11:49:39;;;;;;;25.30;16.80;;;;;;;3.89;87.66;101983.77;107561;1254;79222;-61
2023/02/15 11:52:19;;;;;;;30.10;17.50;;;;;;;3.89;87.85;101983.40;107596;1254;83659;-61
2023/02/15 11:54:54;;;;;;;29.60;16.80;;;;;;;3.97;87.88;101978.87;107594;1254;99334;-57
2023/02/15 11:57:38;;;;;;;29.50;18.30;;;;;;;3.99;87.81;101979.45;107605;1257;87905;-58
2023/02/15 12:00:31;;;;;;;29.00;17.70;;;;;;;4.05;87.85;101979.56;107617;1254;94195;-54
2023/02/15 12:03:24;;;;;;;28.40;17.60;;;;;;;4.07;88.16;101972.34;107568;1254;79698;-58
2023/02/15 12:06:05;;;;;;;33.10;19.90;;;;;;;4.11;88.09;101965.59;107582;1256;82528;-57
2023/02/15 12:08:50;;;;;;;27.70;17.40;;;;;;;4.22;87.87;101962.19;107613;1255;99858;-61
2023/02/15 12:11:34;;;;;;;31.30;18.90;;;;;;;4.26;87.92;101959.50;107589;1255;88478;-59
2023/02/15 12:14:21;;;;;;;30.30;18.20;;;;;;;4.29;87.68;101951.26;107593;1254;93609;-60
2023/02/15 12:17:01;;;;;;;33.60;19.40;;;;;;;4.25;87.79;101947.85;107607;1254;81467;-59
2023/02/15 12:19:42;;;;;;;26.20;17.20;;;;;;;4.26;87.81;101943.30;107575;1254;82122;-60
2023/02/15 12:22:27;;;;;;;26.00;16.40;;;;;;;4.24;87.76;101944.92;107590;1254;100024;-61
2023/02/15 12:25:22;;;;;;;24.50;15.70;;;;;;;4.22;87.59;101941.65;107594;1254;88843;-59
2023/02/15 12:27:57;;;;;;;;;;;;;;;4.15;87.49;101944.28;107630;1254;94166;-57
2023/02/15 12:30:40;;;;;;;29.10;17.80;;;;;;;4.09;87.46;101940.27;107590;1254;80206;-60
2023/02/15 12:33:36;;;;;;;33.40;18.70;;;;;;;4.11;87.73;101937.08;107621;1254;82388;-60
2023/02/15 12:36:23;;;;;;;31.60;18.80;;;;;;;4.21;87.58;101931.70;107605;1254;99168;-53
2023/02/15 12:39:25;;;;;;;31.10;19.40;;;;;;;4.23;87.51;101929.83;107619;1254;87896;-58
2023/02/15 12:42:19;;;;;;;36.00;20.60;;;;;;;4.22;87.56;101922.00;107582;1254;95586;-58
2023/02/15 12:45:04;;;;;;;36.10;21.00;;;;;;;4.21;87.47;101918.33;107616;1253;80736;-60
2023/02/15 12:47:43;;;;;;;36.70;22.20;;;;;;;4.18;87.87;101912.81;107586;1254;82682;-61
2023/02/15 12:50:31;;;;;;;36.20;21.10;;;;;;;4.23;87.75;101908.78;107605;1254;100476;-60
2023/02/15 12:53:22;;;;;;;36.00;20.90;;;;;;;4.28;87.80;101908.02;107136;1253;578457;-59
2023/02/15 12:55:59;;;;;;;38.90;23.10;;;;;;;4.30;87.95;101903.11;107611;1257;93019;-59
2023/02/15 12:58:38;;;;;;;38.80;23.70;;;;;;;4.35;87.85;101903.61;107605;1254;80581;-58